Time;durP1;ratioP1;P1;durP2;ratioP2;P2;SDS_P1;SDS_P2;PMS_P1;PMS_P2;Temp;Humidity;BMP_temperature;BMP_pressure;BME280_temperature;BME280_humidity;BME280_pressure;Samples;Min_cycle;Max_cycle;Signal;HPM_P1;HPM_P2
2023/01/15 00:01:33;;;;;;;0.10;0.10;;;;;;;;;;5055650;28;20311;-73
2023/01/15 00:04:02;;;;;;;0.10;0.10;;;;;;;;;;5066078;28;20204;-73
2023/01/15 00:06:28;;;;;;;0.10;0.10;;;;;;;;;;5055734;28;20619;-73
2023/01/15 00:08:55;;;;;;;0.10;0.10;;;;;;;;;;5066286;28;20460;-73
2023/01/15 00:11:22;;;;;;;0.10;0.10;;;;;;;;;;5055664;28;20242;-72
2023/01/15 00:13:49;;;;;;;0.10;0.10;;;;;;;;;;5066116;28;20552;-73
2023/01/15 00:16:18;;;;;;;0.10;0.10;;;;;;;;;;5055506;28;20306;-72
2023/01/15 00:18:49;;;;;;;0.10;0.10;;;;;;;;;;5065819;28;20211;-72
2023/01/15 00:21:15;;;;;;;0.10;0.10;;;;;;;;;;5055464;28;20304;-72
2023/01/15 00:29:11;;;;;;;0.20;0.20;;;;;;;;;;5065885;28;20515;-72
2023/01/15 00:31:39;;;;;;;0.10;0.10;;;;;;;;;;5055054;28;20239;-73
2023/01/15 00:34:05;;;;;;;0.10;0.10;;;;;;;;;;5065918;28;20234;-73
2023/01/15 00:36:33;;;;;;;0.10;0.10;;;;;;;;;;5055038;28;20246;-73
2023/01/15 00:38:59;;;;;;;0.10;0.10;;;;;;;;;;5065513;28;20501;-74
2023/01/15 00:41:25;;;;;;;0.10;0.10;;;;;;;;;;5055093;28;20566;-73
2023/01/15 00:43:52;;;;;;;0.10;0.10;;;;;;;;;;5065362;28;20275;-74
2023/01/15 00:46:18;;;;;;;0.10;0.10;;;;;;;;;;5055111;28;20242;-73
2023/01/15 00:48:46;;;;;;;0.10;0.10;;;;;;;;;;5065201;28;20204;-72
2023/01/15 00:51:12;;;;;;;0.10;0.10;;;;;;;;;;5054961;28;20239;-72
2023/01/15 00:53:39;;;;;;;0.10;0.10;;;;;;;;;;5065358;28;20271;-73
2023/01/15 00:56:05;;;;;;;0.10;0.10;;;;;;;;;;5055002;28;20301;-73
2023/01/15 00:58:32;;;;;;;0.10;0.10;;;;;;;;;;5064870;28;20410;-74
2023/01/15 01:00:59;;;;;;;0.10;0.10;;;;;;;;;;5054731;28;20259;-73
2023/01/15 01:03:26;;;;;;;0.10;0.10;;;;;;;;;;5064812;28;20211;-73
2023/01/15 01:05:54;;;;;;;0.10;0.10;;;;;;;;;;5055027;28;20492;-73
2023/01/15 01:08:20;;;;;;;0.10;0.10;;;;;;;;;;5064871;28;20279;-73
2023/01/15 01:10:46;;;;;;;0.10;0.10;;;;;;;;;;5053994;28;20245;-73
2023/01/15 01:13:13;;;;;;;0.10;0.10;;;;;;;;;;5064485;28;20212;-73
2023/01/15 01:15:39;;;;;;;0.10;0.10;;;;;;;;;;5054740;28;20243;-73
2023/01/15 01:18:06;;;;;;;0.10;0.10;;;;;;;;;;5064524;28;20210;-73
2023/01/15 01:20:32;;;;;;;0.10;0.10;;;;;;;;;;5054542;28;20274;-73
2023/01/15 01:23:00;;;;;;;0.10;0.10;;;;;;;;;;5064391;28;20211;-72
2023/01/15 01:25:27;;;;;;;0.10;0.10;;;;;;;;;;5054769;28;20372;-73
2023/01/15 01:27:53;;;;;;;0.10;0.10;;;;;;;;;;5064006;28;20469;-73
2023/01/15 01:30:19;;;;;;;0.10;0.10;;;;;;;;;;5054814;28;20228;-73
2023/01/15 01:32:46;;;;;;;0.10;0.10;;;;;;;;;;5064093;28;20275;-73
2023/01/15 01:35:12;;;;;;;0.10;0.10;;;;;;;;;;5054570;28;20274;-72
2023/01/15 01:37:39;;;;;;;0.10;0.10;;;;;;;;;;5063874;28;20204;-74
2023/01/15 01:40:07;;;;;;;0.10;0.10;;;;;;;;;;5064553;28;20258;-73
2023/01/15 01:42:33;;;;;;;0.10;0.10;;;;;;;;;;5053440;28;20302;-73
2023/01/15 01:45:02;;;;;;;0.10;0.10;;;;;;;;;;5064607;28;20274;-73
2023/01/15 01:47:29;;;;;;;0.10;0.10;;;;;;;;;;5053565;28;20259;-73
2023/01/15 01:49:58;;;;;;;0.10;0.10;;;;;;;;;;5064504;28;20275;-73
2023/01/15 01:52:27;;;;;;;0.10;0.10;;;;;;;;;;5053398;28;20240;-73
2023/01/15 01:54:53;;;;;;;0.10;0.10;;;;;;;;;;5064468;28;20232;-72
2023/01/15 01:57:22;;;;;;;0.10;0.10;;;;;;;;;;5053295;28;20246;-72
2023/01/15 01:59:49;;;;;;;0.10;0.10;;;;;;;;;;5064198;28;20295;-73
2023/01/15 02:02:16;;;;;;;0.10;0.10;;;;;;;;;;5053245;28;20251;-72
2023/01/15 02:04:42;;;;;;;0.10;0.10;;;;;;;;;;5064229;28;20237;-72
2023/01/15 02:07:09;;;;;;;0.10;0.10;;;;;;;;;;5053125;28;20310;-72
2023/01/15 02:09:35;;;;;;;0.10;0.10;;;;;;;;;;5064200;28;20214;-73
2023/01/15 02:12:06;;;;;;;0.10;0.10;;;;;;;;;;5053089;28;20250;-72
2023/01/15 02:14:38;;;;;;;0.10;0.10;;;;;;;;;;5064307;28;20224;-73
2023/01/15 02:17:07;;;;;;;0.10;0.10;;;;;;;;;;5052875;28;20242;-72
2023/01/15 02:19:40;;;;;;;0.10;0.10;;;;;;;;;;5064144;28;20249;-71
2023/01/15 02:22:11;;;;;;;0.67;0.67;;;;;;;;;;5052582;28;20310;-73
2023/01/15 02:24:45;;;;;;;0.10;0.10;;;;;;;;;;5063719;28;20266;-73
2023/01/15 02:27:15;;;;;;;0.10;0.10;;;;;;;;;;5052455;28;20315;-73
2023/01/15 02:29:44;;;;;;;0.10;0.10;;;;;;;;;;5063984;28;20214;-73
2023/01/15 02:32:13;;;;;;;0.10;0.10;;;;;;;;;;5052769;28;20240;-72
2023/01/15 02:34:43;;;;;;;0.20;0.20;;;;;;;;;;5063697;28;20204;-73
2023/01/15 02:37:12;;;;;;;0.10;0.10;;;;;;;;;;5052585;28;20689;-73
2023/01/15 02:39:40;;;;;;;0.43;0.43;;;;;;;;;;5063391;28;20271;-72
2023/01/15 02:42:08;;;;;;;0.10;0.10;;;;;;;;;;5052430;28;20299;-72
2023/01/15 02:44:38;;;;;;;0.10;0.10;;;;;;;;;;5063771;28;20239;-72
2023/01/15 02:47:05;;;;;;;0.10;0.10;;;;;;;;;;5052570;28;20288;-73
2023/01/15 02:49:32;;;;;;;0.87;0.87;;;;;;;;;;5063428;28;20234;-73
2023/01/15 02:52:01;;;;;;;0.10;0.10;;;;;;;;;;5052708;28;20248;-73
2023/01/15 02:54:29;;;;;;;0.10;0.10;;;;;;;;;;5063407;28;20239;-73
2023/01/15 02:56:57;;;;;;;0.10;0.10;;;;;;;;;;5052360;28;20554;-72
2023/01/15 02:59:24;;;;;;;0.10;0.10;;;;;;;;;;5063618;28;20246;-72
2023/01/15 03:01:54;;;;;;;0.10;0.10;;;;;;;;;;5052289;28;20573;-74
2023/01/15 03:04:25;;;;;;;0.10;0.10;;;;;;;;;;5063498;28;20191;-73
2023/01/15 03:06:53;;;;;;;0.10;0.10;;;;;;;;;;5052295;28;20297;-73
2023/01/15 03:09:20;;;;;;;0.10;0.10;;;;;;;;;;5063108;28;20203;-73
2023/01/15 03:11:49;;;;;;;0.10;0.10;;;;;;;;;;5052404;28;20263;-74
2023/01/15 03:14:17;;;;;;;0.10;0.10;;;;;;;;;;5063004;28;20203;-73
2023/01/15 03:16:45;;;;;;;0.10;0.10;;;;;;;;;;5052346;28;20242;-74
2023/01/15 03:19:21;;;;;;;0.10;0.10;;;;;;;;;;5063050;28;20279;-72
2023/01/15 03:21:50;;;;;;;0.10;0.10;;;;;;;;;;5052317;28;20251;-73
2023/01/15 03:24:18;;;;;;;0.10;0.10;;;;;;;;;;5063403;28;20204;-73
2023/01/15 03:26:45;;;;;;;0.10;0.10;;;;;;;;;;5052085;28;20259;-74
2023/01/15 03:29:13;;;;;;;0.10;0.10;;;;;;;;;;5063125;28;20211;-73
2023/01/15 03:31:39;;;;;;;0.10;0.10;;;;;;;;;;5052139;28;20245;-74
2023/01/15 03:34:06;;;;;;;0.20;0.20;;;;;;;;;;5063278;28;20220;-73
2023/01/15 03:36:34;;;;;;;0.10;0.10;;;;;;;;;;5056194;28;20239;-73
2023/01/15 03:39:00;;;;;;;0.10;0.10;;;;;;;;;;5066804;28;20206;-73
2023/01/15 03:41:31;;;;;;;0.10;0.10;;;;;;;;;;5056046;28;20562;-73
2023/01/15 03:44:06;;;;;;;0.10;0.10;;;;;;;;;;5066521;28;20194;-73
2023/01/15 03:46:37;;;;;;;0.10;0.10;;;;;;;;;;5055912;28;20245;-72
2023/01/15 03:49:08;;;;;;;0.20;0.20;;;;;;;;;;5066537;28;20534;-73
2023/01/15 03:51:39;;;;;;;0.10;0.10;;;;;;;;;;5055857;28;20240;-72
2023/01/15 03:54:08;;;;;;;0.10;0.10;;;;;;;;;;5066736;28;20220;-73
2023/01/15 03:56:36;;;;;;;0.10;0.10;;;;;;;;;;5055661;28;20248;-73
2023/01/15 03:59:05;;;;;;;0.10;0.10;;;;;;;;;;5066292;28;20267;-73
2023/01/15 04:01:34;;;;;;;0.10;0.10;;;;;;;;;;5055639;28;20254;-73
2023/01/15 04:04:02;;;;;;;0.10;0.10;;;;;;;;;;5066575;28;20541;-73
2023/01/15 04:06:29;;;;;;;0.10;0.10;;;;;;;;;;5055744;28;20310;-73
2023/01/15 04:08:58;;;;;;;0.10;0.10;;;;;;;;;;5066408;28;20204;-73
2023/01/15 04:11:25;;;;;;;0.13;0.13;;;;;;;;;;5055562;28;20251;-73
2023/01/15 04:13:51;;;;;;;0.10;0.10;;;;;;;;;;5065960;28;20275;-72
2023/01/15 04:16:20;;;;;;;0.10;0.10;;;;;;;;;;5055617;28;20240;-73
2023/01/15 04:18:47;;;;;;;0.10;0.10;;;;;;;;;;5066081;28;20229;-74
2023/01/15 04:21:13;;;;;;;0.10;0.10;;;;;;;;;;5055475;28;20573;-73
2023/01/15 04:23:40;;;;;;;0.10;0.10;;;;;;;;;;5065957;28;20212;-73
2023/01/15 04:26:07;;;;;;;0.10;0.10;;;;;;;;;;5055668;28;20259;-73
2023/01/15 04:28:34;;;;;;;0.10;0.10;;;;;;;;;;5065456;28;20286;-73
2023/01/15 04:31:00;;;;;;;0.10;0.10;;;;;;;;;;5055253;28;20240;-73
2023/01/15 04:33:27;;;;;;;0.10;0.10;;;;;;;;;;5065636;28;20263;-73
2023/01/15 04:35:53;;;;;;;0.10;0.10;;;;;;;;;;5055543;28;20530;-73
2023/01/15 04:38:19;;;;;;;0.10;0.10;;;;;;;;;;5065115;28;20302;-72
2023/01/15 04:46:29;;;;;;;0.20;0.20;;;;;;;;;;5013313;28;20242;-73
2023/01/15 04:48:56;;;;;;;0.10;0.10;;;;;;;;;;5038928;28;20206;-73
2023/01/15 04:51:22;;;;;;;0.10;0.10;;;;;;;;;;5051278;28;20242;-73
2023/01/15 04:53:48;;;;;;;0.10;0.10;;;;;;;;;;5085532;28;20239;-73
2023/01/15 04:56:15;;;;;;;0.10;0.10;;;;;;;;;;5074472;28;20316;-73
2023/01/15 04:58:43;;;;;;;0.10;0.10;;;;;;;;;;5085226;28;20238;-73
2023/01/15 05:01:10;;;;;;;0.10;0.10;;;;;;;;;;5074506;28;20237;-72
2023/01/15 05:03:37;;;;;;;0.10;0.10;;;;;;;;;;5084845;28;20206;-73
2023/01/15 05:06:03;;;;;;;0.10;0.10;;;;;;;;;;5074568;28;20313;-73
2023/01/15 05:08:30;;;;;;;0.20;0.20;;;;;;;;;;5084840;28;20204;-73
2023/01/15 05:11:00;;;;;;;0.10;0.10;;;;;;;;;;5074456;28;20248;-73
2023/01/15 05:13:27;;;;;;;0.10;0.10;;;;;;;;;;5085028;28;20201;-73
2023/01/15 05:15:54;;;;;;;0.20;0.20;;;;;;;;;;5074411;28;20253;-73
2023/01/15 05:18:21;;;;;;;0.10;0.10;;;;;;;;;;5084765;28;20421;-73
2023/01/15 05:20:47;;;;;;;0.10;0.10;;;;;;;;;;5074232;28;20313;-73
2023/01/15 05:23:13;;;;;;;0.10;0.10;;;;;;;;;;5084664;28;20260;-73
2023/01/15 05:25:40;;;;;;;0.20;0.20;;;;;;;;;;5074670;28;20252;-73
2023/01/15 05:28:06;;;;;;;0.20;0.20;;;;;;;;;;5084122;28;20253;-73
2023/01/15 05:30:32;;;;;;;0.10;0.10;;;;;;;;;;5074228;28;20306;-73
2023/01/15 05:33:00;;;;;;;0.20;0.20;;;;;;;;;;5084259;28;20213;-73
2023/01/15 05:35:26;;;;;;;0.10;0.10;;;;;;;;;;5074699;28;20258;-72
2023/01/15 05:37:53;;;;;;;0.20;0.20;;;;;;;;;;5084041;28;20209;-73
2023/01/15 05:40:19;;;;;;;0.20;0.20;;;;;;;;;;5074174;28;20236;-73
2023/01/15 05:42:46;;;;;;;0.13;0.13;;;;;;;;;;5083832;28;20296;-74
2023/01/15 05:45:12;;;;;;;0.20;0.20;;;;;;;;;;5074464;28;20370;-73
2023/01/15 05:47:38;;;;;;;0.10;0.10;;;;;;;;;;5083764;28;20226;-73
2023/01/15 05:50:06;;;;;;;0.20;0.20;;;;;;;;;;5084539;28;20247;-73
2023/01/15 05:52:33;;;;;;;0.13;0.13;;;;;;;;;;5073277;28;20443;-73
2023/01/15 05:54:59;;;;;;;0.10;0.10;;;;;;;;;;5084728;28;20272;-73
2023/01/15 05:57:25;;;;;;;0.10;0.10;;;;;;;;;;5072848;28;20242;-73
2023/01/15 05:59:53;;;;;;;0.10;0.10;;;;;;;;;;5084603;28;20451;-73
2023/01/15 06:02:20;;;;;;;0.20;0.20;;;;;;;;;;5072901;28;20302;-73
2023/01/15 06:04:46;;;;;;;0.10;0.10;;;;;;;;;;5084541;28;20204;-73
2023/01/15 06:07:16;;;;;;;0.10;0.10;;;;;;;;;;5072962;28;20262;-73
2023/01/15 06:09:42;;;;;;;0.20;0.20;;;;;;;;;;5084101;28;20266;-74
2023/01/15 06:12:08;;;;;;;0.10;0.10;;;;;;;;;;5072854;28;20565;-73
2023/01/15 06:14:35;;;;;;;0.20;0.20;;;;;;;;;;5084374;28;20429;-74
2023/01/15 06:17:01;;;;;;;0.13;0.13;;;;;;;;;;5072867;28;20239;-74
2023/01/15 06:19:28;;;;;;;0.10;0.10;;;;;;;;;;5083896;28;20203;-73
2023/01/15 06:21:54;;;;;;;0.20;0.20;;;;;;;;;;5072725;28;20242;-73
2023/01/15 06:24:22;;;;;;;0.20;0.20;;;;;;;;;;5083843;28;20204;-73
2023/01/15 06:26:48;;;;;;;0.10;0.10;;;;;;;;;;5072536;28;20258;-73
2023/01/15 06:29:17;;;;;;;0.10;0.10;;;;;;;;;;5083596;28;20271;-71
2023/01/15 06:31:43;;;;;;;0.17;0.17;;;;;;;;;;5072443;28;20318;-73
2023/01/15 06:34:10;;;;;;;0.20;0.20;;;;;;;;;;5083556;28;20271;-73
2023/01/15 06:36:36;;;;;;;0.20;0.20;;;;;;;;;;5072646;28;20316;-73
2023/01/15 06:39:03;;;;;;;0.20;0.20;;;;;;;;;;5083365;28;20503;-72
2023/01/15 06:49:45;;;;;;;0.10;0.10;;;;;;;;;;5083727;28;20190;-72
2023/01/15 06:52:11;;;;;;;0.10;0.10;;;;;;;;;;5072296;28;20242;-73
2023/01/15 06:54:38;;;;;;;0.13;0.13;;;;;;;;;;5083559;28;20204;-72
2023/01/15 06:57:05;;;;;;;0.17;0.17;;;;;;;;;;5072317;28;20307;-73
2023/01/15 06:59:32;;;;;;;0.20;0.20;;;;;;;;;;5083729;28;20231;-73
2023/01/15 07:01:58;;;;;;;0.10;0.10;;;;;;;;;;5072110;28;20231;-73
2023/01/15 07:04:25;;;;;;;0.20;0.20;;;;;;;;;;5083758;28;20329;-73
2023/01/15 07:06:51;;;;;;;0.20;0.20;;;;;;;;;;5072127;28;20476;-74
2023/01/15 07:09:17;;;;;;;0.20;0.20;;;;;;;;;;5084560;28;20274;-73
2023/01/15 07:11:49;;;;;;;0.20;0.20;;;;;;;;;;5076508;28;20302;-73
2023/01/15 07:14:17;;;;;;;0.13;0.13;;;;;;;;;;5087611;28;20505;-72
2023/01/15 07:16:43;;;;;;;0.20;0.20;;;;;;;;;;5076417;28;20254;-73
2023/01/15 07:19:10;;;;;;;0.20;0.20;;;;;;;;;;5087475;28;20239;-73
2023/01/15 07:21:36;;;;;;;0.10;0.10;;;;;;;;;;5075992;28;20261;-73
2023/01/15 07:24:03;;;;;;;0.20;0.20;;;;;;;;;;5087291;28;20567;-73
2023/01/15 07:26:29;;;;;;;0.10;0.10;;;;;;;;;;5076200;28;20261;-73
2023/01/15 07:28:55;;;;;;;0.20;0.20;;;;;;;;;;5087294;28;20195;-73
2023/01/15 07:31:23;;;;;;;0.20;0.20;;;;;;;;;;5076260;28;20239;-74
2023/01/15 07:33:49;;;;;;;0.20;0.20;;;;;;;;;;5086751;28;20274;-72
2023/01/15 07:36:16;;;;;;;0.10;0.10;;;;;;;;;;5075984;28;20510;-72
2023/01/15 07:38:42;;;;;;;0.20;0.20;;;;;;;;;;5086588;28;20249;-73
2023/01/15 07:52:06;;;;;;;0.20;0.20;;;;;;;;;;5075572;28;20244;-73
2023/01/15 07:54:32;;;;;;;0.20;0.20;;;;;;;;;;5087026;28;20203;-73
2023/01/15 07:56:59;;;;;;;0.20;0.20;;;;;;;;;;5075425;28;20372;-73
2023/01/15 07:59:25;;;;;;;0.20;0.20;;;;;;;;;;5086837;28;20422;-72
2023/01/15 08:01:53;;;;;;;0.20;0.20;;;;;;;;;;5075317;28;20261;-73
2023/01/15 08:04:19;;;;;;;0.20;0.20;;;;;;;;;;5086394;28;20273;-73
2023/01/15 08:06:45;;;;;;;0.20;0.20;;;;;;;;;;5075207;28;20238;-72
2023/01/15 08:09:12;;;;;;;0.20;0.20;;;;;;;;;;5086565;28;20203;-73
2023/01/15 08:17:07;;;;;;;0.20;0.20;;;;;;;;;;5075097;28;20246;-73
2023/01/15 08:19:34;;;;;;;0.20;0.20;;;;;;;;;;5086547;28;20246;-72
2023/01/15 08:22:01;;;;;;;0.20;0.20;;;;;;;;;;5074887;28;20268;-72
2023/01/15 08:24:28;;;;;;;0.20;0.20;;;;;;;;;;5086161;28;20206;-74
2023/01/15 08:26:54;;;;;;;0.20;0.20;;;;;;;;;;5074681;28;20315;-73
2023/01/15 08:29:21;;;;;;;0.13;0.13;;;;;;;;;;5086347;28;20266;-72
2023/01/15 08:31:48;;;;;;;0.20;0.20;;;;;;;;;;5074980;28;20242;-73
2023/01/15 08:34:16;;;;;;;0.20;0.20;;;;;;;;;;5085791;28;20203;-72
2023/01/15 08:36:42;;;;;;;0.20;0.20;;;;;;;;;;5074938;28;20488;-73
2023/01/15 08:39:08;;;;;;;0.20;0.20;;;;;;;;;;5085700;28;20206;-73
2023/01/15 08:41:35;;;;;;;0.23;0.23;;;;;;;;;;5074785;28;20250;-73
2023/01/15 08:44:01;;;;;;;0.20;0.20;;;;;;;;;;5085526;28;20238;-73
2023/01/15 08:46:28;;;;;;;0.20;0.20;;;;;;;;;;5074678;28;20302;-73
2023/01/15 08:48:54;;;;;;;0.20;0.20;;;;;;;;;;5085396;28;20234;-73
2023/01/15 08:51:22;;;;;;;0.20;0.20;;;;;;;;;;5074796;28;20581;-72
2023/01/15 08:53:48;;;;;;;0.20;0.20;;;;;;;;;;5085155;28;20270;-73
2023/01/15 08:56:15;;;;;;;0.13;0.13;;;;;;;;;;5074801;28;20255;-71
2023/01/15 08:58:42;;;;;;;0.20;0.20;;;;;;;;;;5085380;28;20524;-73
2023/01/15 09:01:10;;;;;;;0.20;0.20;;;;;;;;;;5074456;28;20242;-73
2023/01/15 09:03:36;;;;;;;0.20;0.20;;;;;;;;;;5084870;28;20223;-73
2023/01/15 09:06:04;;;;;;;0.20;0.20;;;;;;;;;;5074773;28;20281;-73
2023/01/15 09:08:32;;;;;;;0.13;0.13;;;;;;;;;;5085085;28;20467;-74
2023/01/15 09:10:58;;;;;;;0.10;0.10;;;;;;;;;;5074513;28;20253;-74
2023/01/15 09:13:25;;;;;;;0.10;0.10;;;;;;;;;;5084654;28;20273;-73
2023/01/15 09:15:52;;;;;;;0.20;0.20;;;;;;;;;;5074683;28;20607;-73
2023/01/15 09:18:19;;;;;;;0.20;0.20;;;;;;;;;;5084458;28;20238;-73
2023/01/15 09:20:45;;;;;;;0.20;0.20;;;;;;;;;;5074540;28;20579;-73
2023/01/15 09:23:12;;;;;;;0.67;0.60;;;;;;;;;;5084632;28;20234;-73
2023/01/15 09:25:40;;;;;;;0.20;0.20;;;;;;;;;;5074326;28;20238;-73
2023/01/15 09:28:06;;;;;;;0.10;0.10;;;;;;;;;;5084103;28;20448;-73
2023/01/15 09:30:32;;;;;;;0.20;0.20;;;;;;;;;;5074471;28;20346;-74
2023/01/15 09:32:59;;;;;;;0.20;0.20;;;;;;;;;;5083691;28;20209;-73
2023/01/15 09:35:25;;;;;;;0.47;0.47;;;;;;;;;;5074641;28;20270;-73
2023/01/15 09:37:52;;;;;;;0.50;0.50;;;;;;;;;;5083825;28;20270;-73
2023/01/15 09:40:29;;;;;;;0.20;0.20;;;;;;;;;;5074257;28;20207;-73
2023/01/15 09:43:00;;;;;;;0.20;0.20;;;;;;;;;;5083827;28;20277;-73
2023/01/15 09:45:29;;;;;;;0.10;0.10;;;;;;;;;;5074451;28;20191;-73
2023/01/15 09:48:01;;;;;;;0.20;0.20;;;;;;;;;;5083872;28;20267;-73
2023/01/15 09:50:31;;;;;;;0.20;0.20;;;;;;;;;;5074351;28;20527;-73
2023/01/15 09:53:10;;;;;;;0.10;0.10;;;;;;;;;;5083768;28;20211;-73
2023/01/15 09:55:42;;;;;;;0.20;0.20;;;;;;;;;;5073693;28;20238;-73
2023/01/15 09:58:11;;;;;;;0.20;0.20;;;;;;;;;;5084067;28;20191;-73
2023/01/15 10:00:45;;;;;;;0.20;0.20;;;;;;;;;;5073918;28;20574;-73
2023/01/15 10:03:15;;;;;;;0.20;0.20;;;;;;;;;;5083527;28;20293;-73
2023/01/15 10:05:44;;;;;;;0.20;0.20;;;;;;;;;;5074038;28;20361;-74
2023/01/15 10:08:12;;;;;;;0.20;0.20;;;;;;;;;;5083811;28;20535;-73
2023/01/15 10:10:42;;;;;;;0.20;0.20;;;;;;;;;;5073707;28;20246;-73
2023/01/15 10:13:11;;;;;;;0.20;0.20;;;;;;;;;;5083307;28;20210;-73
2023/01/15 10:15:41;;;;;;;0.27;0.27;;;;;;;;;;5073329;28;20302;-73
2023/01/15 10:18:13;;;;;;;0.10;0.10;;;;;;;;;;5083461;28;20262;-73
2023/01/15 10:20:44;;;;;;;0.10;0.10;;;;;;;;;;5073374;28;20242;-73
2023/01/15 10:23:22;;;;;;;0.17;0.17;;;;;;;;;;5083473;28;20242;-73
2023/01/15 10:25:50;;;;;;;0.10;0.10;;;;;;;;;;5073488;28;20256;-73
2023/01/15 10:28:19;;;;;;;0.10;0.10;;;;;;;;;;5083161;28;20218;-73
2023/01/15 10:30:47;;;;;;;0.10;0.10;;;;;;;;;;5072966;28;20239;-73
2023/01/15 10:33:24;;;;;;;0.17;0.17;;;;;;;;;;5083342;28;20248;-72
2023/01/15 10:35:53;;;;;;;0.10;0.10;;;;;;;;;;5073133;28;20268;-73
2023/01/15 10:38:24;;;;;;;0.70;0.70;;;;;;;;;;5083053;28;20450;-73
2023/01/15 10:41:07;;;;;;;0.10;0.10;;;;;;;;;;5072877;28;20239;-73
2023/01/15 10:43:41;;;;;;;0.10;0.10;;;;;;;;;;5082629;28;20329;-73
2023/01/15 10:46:11;;;;;;;0.20;0.20;;;;;;;;;;5072756;28;20244;-73
2023/01/15 10:48:39;;;;;;;0.10;0.10;;;;;;;;;;5083401;28;20251;-73
2023/01/15 10:51:13;;;;;;;0.10;0.10;;;;;;;;;;5072628;28;20255;-73
2023/01/15 10:53:42;;;;;;;0.10;0.10;;;;;;;;;;5083417;28;20436;-73
2023/01/15 10:56:11;;;;;;;0.13;0.13;;;;;;;;;;5072806;28;20302;-73
2023/01/15 10:58:40;;;;;;;0.10;0.10;;;;;;;;;;5082858;28;20199;-74
2023/01/15 11:01:09;;;;;;;0.13;0.13;;;;;;;;;;5072804;28;20448;-73
2023/01/15 11:03:38;;;;;;;0.30;0.30;;;;;;;;;;5083105;28;20228;-73
2023/01/15 11:06:07;;;;;;;0.20;0.20;;;;;;;;;;5072545;28;20242;-72
2023/01/15 11:08:34;;;;;;;0.20;0.20;;;;;;;;;;5083035;28;20344;-73
2023/01/15 11:11:07;;;;;;;0.60;0.23;;;;;;;;;;5072733;28;20333;-73
2023/01/15 11:21:57;;;;;;;0.20;0.20;;;;;;;;;;5072103;28;20243;-72
2023/01/15 11:24:23;;;;;;;0.10;0.10;;;;;;;;;;5083341;28;20254;-73
2023/01/15 11:26:51;;;;;;;0.10;0.10;;;;;;;;;;5071948;28;20305;-72
2023/01/15 11:29:24;;;;;;;0.13;0.13;;;;;;;;;;5083229;28;20195;-72
2023/01/15 11:31:50;;;;;;;0.20;0.20;;;;;;;;;;5071935;28;20260;-72
2023/01/15 11:34:20;;;;;;;0.30;0.30;;;;;;;;;;5083001;28;20228;-72
2023/01/15 11:36:47;;;;;;;0.37;0.37;;;;;;;;;;5072129;28;20464;-73
2023/01/15 11:39:21;;;;;;;2.77;0.50;;;;;;;;;;5082883;28;20279;-73
2023/01/15 11:53:00;;;;;;;0.20;0.20;;;;;;;;;;5095740;28;20269;-73
2023/01/15 11:55:27;;;;;;;0.20;0.20;;;;;;;;;;5073774;28;20230;-73
2023/01/15 11:57:54;;;;;;;0.20;0.20;;;;;;;;;;5086027;28;20244;-73
2023/01/15 12:00:22;;;;;;;0.10;0.10;;;;;;;;;;5076380;28;20236;-73
2023/01/15 12:02:49;;;;;;;0.20;0.20;;;;;;;;;;5085728;28;20293;-73
2023/01/15 12:05:18;;;;;;;0.40;0.40;;;;;;;;;;5075884;28;20260;-71
2023/01/15 12:07:46;;;;;;;0.20;0.20;;;;;;;;;;5085462;28;20207;-72
2023/01/15 12:10:20;;;;;;;0.20;0.20;;;;;;;;;;5076078;28;20237;-73
2023/01/15 12:12:52;;;;;;;0.20;0.20;;;;;;;;;;5085703;28;20499;-73
2023/01/15 12:15:24;;;;;;;0.20;0.20;;;;;;;;;;5076127;28;20263;-72
2023/01/15 12:18:07;;;;;;;0.20;0.20;;;;;;;;;;5085664;28;20235;-73
2023/01/15 12:20:43;;;;;;;0.20;0.20;;;;;;;;;;5075924;28;20254;-73
2023/01/15 12:23:18;;;;;;;1.13;0.30;;;;;;;;;;5085642;28;20227;-73
2023/01/15 12:25:50;;;;;;;0.20;0.20;;;;;;;;;;5075609;28;20285;-74
2023/01/15 12:28:18;;;;;;;0.20;0.20;;;;;;;;;;5085313;28;20278;-73
2023/01/15 12:30:48;;;;;;;0.20;0.20;;;;;;;;;;5075243;28;20262;-73
2023/01/15 12:33:21;;;;;;;0.30;0.30;;;;;;;;;;5085297;28;20199;-72
2023/01/15 12:35:55;;;;;;;0.63;0.30;;;;;;;;;;5074828;28;20240;-72
2023/01/15 12:38:24;;;;;;;0.10;0.10;;;;;;;;;;5085383;28;20233;-73
2023/01/15 12:40:54;;;;;;;0.30;0.30;;;;;;;;;;5075043;28;20303;-68
2023/01/15 12:46:10;;;;;;;0.20;0.20;;;;;;;;;;5074930;28;20300;-68
2023/01/15 12:48:39;;;;;;;0.20;0.20;;;;;;;;;;5085154;28;20204;-69
2023/01/15 12:51:13;;;;;;;0.10;0.10;;;;;;;;;;5074785;28;20258;-68
2023/01/15 12:53:42;;;;;;;0.20;0.20;;;;;;;;;;5085282;28;20223;-68
2023/01/15 12:56:14;;;;;;;0.10;0.10;;;;;;;;;;5074727;28;20239;-69
2023/01/15 12:58:42;;;;;;;0.30;0.30;;;;;;;;;;5085450;28;20307;-69
2023/01/15 13:01:12;;;;;;;0.20;0.20;;;;;;;;;;5074827;28;20247;-68
2023/01/15 13:03:46;;;;;;;0.20;0.20;;;;;;;;;;5084850;28;20258;-68
2023/01/15 13:06:15;;;;;;;0.20;0.20;;;;;;;;;;5074388;28;20311;-70
2023/01/15 13:08:47;;;;;;;0.13;0.13;;;;;;;;;;5084318;28;20206;-69
2023/01/15 13:11:13;;;;;;;0.20;0.20;;;;;;;;;;5074532;28;20485;-69
2023/01/15 13:13:40;;;;;;;0.20;0.20;;;;;;;;;;5085092;28;20235;-69
2023/01/15 13:16:13;;;;;;;0.23;0.23;;;;;;;;;;5074494;28;20245;-69
2023/01/15 13:18:46;;;;;;;0.20;0.20;;;;;;;;;;5084706;28;20204;-69
2023/01/15 13:21:15;;;;;;;1.70;0.90;;;;;;;;;;5074319;28;20263;-68
2023/01/15 13:23:47;;;;;;;0.10;0.10;;;;;;;;;;5084556;28;20222;-69
2023/01/15 13:26:19;;;;;;;0.20;0.20;;;;;;;;;;5074255;28;20486;-69
2023/01/15 13:28:53;;;;;;;0.13;0.13;;;;;;;;;;5084591;28;20442;-68
2023/01/15 13:31:33;;;;;;;0.20;0.20;;;;;;;;;;5074017;28;20452;-69
2023/01/15 13:34:01;;;;;;;0.20;0.20;;;;;;;;;;5084901;28;20441;-69
2023/01/15 13:36:32;;;;;;;0.20;0.20;;;;;;;;;;5073707;28;20315;-69
2023/01/15 13:39:00;;;;;;;0.13;0.13;;;;;;;;;;5084412;28;20278;-69
2023/01/15 13:44:18;;;;;;;0.13;0.13;;;;;;;;;;5084482;28;20245;-69
2023/01/15 13:46:45;;;;;;;0.20;0.20;;;;;;;;;;5073614;28;20458;-69
2023/01/15 13:49:17;;;;;;;0.10;0.10;;;;;;;;;;5084401;28;20276;-69
2023/01/15 13:51:47;;;;;;;1.77;0.27;;;;;;;;;;5073436;28;20239;-68
2023/01/15 13:54:15;;;;;;;0.20;0.20;;;;;;;;;;5084300;28;20234;-69
2023/01/15 13:56:43;;;;;;;0.10;0.10;;;;;;;;;;5073326;28;20263;-69
2023/01/15 13:59:24;;;;;;;0.20;0.20;;;;;;;;;;5084140;28;20473;-69
2023/01/15 14:01:51;;;;;;;0.13;0.13;;;;;;;;;;5073264;28;20309;-69
2023/01/15 14:04:17;;;;;;;0.10;0.10;;;;;;;;;;5084019;28;20230;-69
2023/01/15 14:06:44;;;;;;;0.20;0.20;;;;;;;;;;5073196;28;20417;-69
2023/01/15 14:09:13;;;;;;;0.13;0.13;;;;;;;;;;5083986;28;20236;-69
2023/01/15 14:11:43;;;;;;;0.20;0.20;;;;;;;;;;5073142;28;20292;-69
2023/01/15 14:14:16;;;;;;;0.20;0.20;;;;;;;;;;5083687;28;20200;-68
2023/01/15 14:16:51;;;;;;;0.20;0.20;;;;;;;;;;5073035;28;20254;-70
2023/01/15 14:19:35;;;;;;;0.30;0.30;;;;;;;;;;5083673;28;20190;-68
2023/01/15 14:22:09;;;;;;;0.20;0.20;;;;;;;;;;5072666;28;20458;-68
2023/01/15 14:24:50;;;;;;;0.20;0.20;;;;;;;;;;5083839;28;20278;-67
2023/01/15 14:27:23;;;;;;;0.20;0.20;;;;;;;;;;5069209;28;20243;-68
2023/01/15 14:30:02;;;;;;;0.20;0.20;;;;;;;;;;5083750;28;20192;-68
2023/01/15 14:32:37;;;;;;;0.30;0.30;;;;;;;;;;5072432;28;20246;-69
2023/01/15 14:35:10;;;;;;;0.40;0.40;;;;;;;;;;5083769;28;20228;-68
2023/01/15 14:37:44;;;;;;;0.20;0.20;;;;;;;;;;5072509;28;20410;-68
2023/01/15 14:40:17;;;;;;;0.20;0.20;;;;;;;;;;5073643;28;20482;-68
2023/01/15 14:43:03;;;;;;;0.20;0.20;;;;;;;;;;5082820;28;20239;-67
2023/01/15 14:45:31;;;;;;;9.63;0.80;;;;;;;;;;5072951;28;20245;-68
2023/01/15 14:47:58;;;;;;;0.20;0.20;;;;;;;;;;5082730;28;20267;-68
2023/01/15 14:50:29;;;;;;;0.20;0.20;;;;;;;;;;5073013;28;20284;-68
2023/01/15 14:52:59;;;;;;;0.20;0.20;;;;;;;;;;5082982;28;20211;-68
2023/01/15 14:55:26;;;;;;;0.20;0.20;;;;;;;;;;5072926;28;20232;-68
2023/01/15 14:57:56;;;;;;;0.43;0.30;;;;;;;;;;5082890;28;20203;-68
2023/01/15 15:00:24;;;;;;;2.60;0.40;;;;;;;;;;5073002;28;20262;-68
2023/01/15 15:02:50;;;;;;;0.20;0.20;;;;;;;;;;5082551;28;20269;-69
2023/01/15 15:05:18;;;;;;;0.40;0.40;;;;;;;;;;5072918;28;20258;-68
2023/01/15 15:07:47;;;;;;;0.20;0.20;;;;;;;;;;5082606;28;20267;-69
2023/01/15 15:10:19;;;;;;;0.73;0.73;;;;;;;;;;5073153;28;20235;-69
2023/01/15 15:12:48;;;;;;;0.30;0.30;;;;;;;;;;5082682;28;20204;-69
2023/01/15 15:15:19;;;;;;;0.20;0.20;;;;;;;;;;5073056;28;20216;-69
2023/01/15 15:17:54;;;;;;;0.37;0.37;;;;;;;;;;5082467;28;20245;-68
2023/01/15 15:20:26;;;;;;;0.33;0.33;;;;;;;;;;5072854;28;20194;-68
2023/01/15 15:22:55;;;;;;;0.10;0.10;;;;;;;;;;5082690;28;20544;-68
2023/01/15 15:25:22;;;;;;;0.20;0.20;;;;;;;;;;5072945;28;20223;-68
2023/01/15 15:27:48;;;;;;;0.40;0.40;;;;;;;;;;5082054;28;20215;-69
2023/01/15 15:30:19;;;;;;;0.20;0.20;;;;;;;;;;5073821;28;20294;-69
2023/01/15 15:32:45;;;;;;;0.20;0.20;;;;;;;;;;5086242;28;20207;-69
2023/01/15 15:35:21;;;;;;;0.30;0.30;;;;;;;;;;5079167;28;20453;-69
2023/01/15 15:37:49;;;;;;;0.20;0.20;;;;;;;;;;5087728;28;20270;-69
2023/01/15 15:40:16;;;;;;;0.10;0.10;;;;;;;;;;5076840;28;20456;-69
2023/01/15 15:51:01;;;;;;;0.20;0.20;;;;;;;;;;5076062;28;20360;-69
2023/01/15 15:53:28;;;;;;;0.20;0.20;;;;;;;;;;5085981;28;20517;-68
2023/01/15 15:55:56;;;;;;;0.30;0.30;;;;;;;;;;5075698;28;20243;-69
2023/01/15 15:58:24;;;;;;;0.20;0.20;;;;;;;;;;5085832;28;20273;-69
2023/01/15 16:00:52;;;;;;;0.20;0.20;;;;;;;;;;5076125;28;20273;-68